Terminal Aerodrome Forecast
Issued by NWS Sterling, VA

Current Version | Previous Version | Text Only | Print | Product List | Glossary Off
Versions: 1 2 3 4 5 6 7 8 9 10 11 12 13 14 15 16 17 18 19 20 21 22 23 24 25

241
FTUS41 KLWX 292056 AAA
TAFDCA
TAF AMD
KDCA 292056Z 2921/3018 15007KT P6SM OVC050
     FM292200 15007KT P6SM -SHRA OVC050
     FM300100 16005KT 5SM SHRA BR OVC040
     FM300400 16004KT 3SM SHRA BR OVC020
     FM301000 VRB03KT 3SM -SHRA BR OVC008
     FM301600 32004KT 5SM BR OVC025=

USA.gov is the U.S. government's official web portal to all federal, state and local government web resources and services.